»·PEaware :: N172TT KSBA-KBUR

N172TT :: KSBA-KBUR

FLIGHT INFORMATION

Flight Status: Arrived
Operator: Privately registered:
United States
More flights under this callsign
Pilot: Thomas T. (19955)
Aircraft: CESSNA 172 SKYHAWK
(C172)
More flights by this aircraft type
Origin: KSBA Santa Barbara Mun
United States
Destination: KBUR Bob Hope-Burbank
United States
More flights between these airports :: More routes between these airports
Route: +
File this flight plan on PilotEdge
Remarks:
Altitude:
(Current/Filed)
0ft
Speed:
(Current/Filed)
0kts
Departed: 09-Aug-18 01:07 PM
Arrived: 09-Aug-18 01:48 PM
Distance/Time
Traveled:
75nm/0:41
Distance/Time
To Go:
Arrived

Flight Plot

Page will automatically refresh every two minutes.


Map Options




Map Legend


Flown Route
Filed Route
Departure Airport
Arrival Airport
Navaid (VOR, NDB)
Fix

Horizontal Profiles

Position Reports

Time Latitude Longitude Heading Altitude Ground
Speed
09-Aug-18 12:50 34.422611 -119.835618 281 10ft 0kts
09-Aug-18 12:51 34.422611 -119.835618 281 10ft 0kts
09-Aug-18 12:52 34.422611 -119.835618 281 10ft 0kts
09-Aug-18 12:53 34.422611 -119.835618 281 10ft 0kts
09-Aug-18 12:54 34.422611 -119.835618 281 10ft 0kts
09-Aug-18 12:55 34.422611 -119.835618 281 10ft 0kts
09-Aug-18 12:56 34.422611 -119.835618 281 10ft 0kts
09-Aug-18 12:57 34.422611 -119.835618 281 10ft 0kts
09-Aug-18 12:58 34.422611 -119.835618 281 10ft 0kts
09-Aug-18 12:59 34.422611 -119.835618 281 10ft 0kts
09-Aug-18 13:00 34.422733 -119.836936 303 12ft 0kts
09-Aug-18 13:01 34.425456 -119.837974 345 12ft 15kts
09-Aug-18 13:02 34.429464 -119.839208 339 14ft 12kts
09-Aug-18 13:03 34.430514 -119.839645 266 14ft 0kts
09-Aug-18 13:04 34.430514 -119.839645 266 14ft 0kts
09-Aug-18 13:05 34.430514 -119.839645 266 14ft 0kts
09-Aug-18 13:06 34.430514 -119.839645 266 14ft 0kts
09-Aug-18 13:07 34.430511 -119.839707 267 14ft 5kts
09-Aug-18 13:08 34.424716 -119.838593 168 114ft 76kts
09-Aug-18 13:09 34.403850 -119.831675 156 1068ft 75kts
09-Aug-18 13:10 34.389836 -119.813429 89 1874ft 91kts
09-Aug-18 13:11 34.387737 -119.780321 98 2676ft 103kts
09-Aug-18 13:12 34.383176 -119.746086 98 3472ft 103kts
09-Aug-18 13:13 34.378745 -119.712211 98 4271ft 101kts
09-Aug-18 13:14 34.374507 -119.679191 97 5067ft 98kts
09-Aug-18 13:15 34.370455 -119.647024 97 5864ft 95kts
09-Aug-18 13:16 34.366652 -119.615944 97 6659ft 92kts
09-Aug-18 13:17 34.362995 -119.585752 97 7373ft 97kts
09-Aug-18 13:18 34.358403 -119.547766 97 7465ft 124kts
09-Aug-18 13:19 34.352662 -119.505917 99 7465ft 127kts
09-Aug-18 13:20 34.346453 -119.463800 99 7464ft 127kts
09-Aug-18 13:21 34.340330 -119.421627 99 7464ft 127kts
09-Aug-18 13:22 34.334280 -119.379313 99 7463ft 127kts
09-Aug-18 13:23 34.328653 -119.339359 99 7462ft 127kts
09-Aug-18 13:24 34.322782 -119.297036 99 7461ft 127kts
09-Aug-18 13:25 34.317033 -119.254928 99 7518ft 124kts
09-Aug-18 13:26 34.311404 -119.213001 98 7518ft 127kts
09-Aug-18 13:27 34.305806 -119.170645 98 7517ft 127kts
09-Aug-18 13:28 34.300304 -119.128321 98 7516ft 127kts
09-Aug-18 13:29 34.294900 -119.086040 98 7516ft 127kts
09-Aug-18 13:30 34.289561 -119.043550 98 7515ft 127kts
09-Aug-18 13:31 34.284330 -119.001178 98 7514ft 127kts
09-Aug-18 13:32 34.279250 -118.959423 98 7512ft 122kts
09-Aug-18 13:33 34.274336 -118.918470 97 7327ft 124kts
09-Aug-18 13:34 34.269431 -118.876953 97 7027ft 125kts
09-Aug-18 13:35 34.264589 -118.835196 97 6727ft 125kts
09-Aug-18 13:36 34.259826 -118.793337 97 6427ft 125kts
09-Aug-18 13:37 34.255154 -118.751465 97 6126ft 126kts
09-Aug-18 13:38 34.250448 -118.708571 97 5583ft 131kts
09-Aug-18 13:39 34.245779 -118.665437 97 4839ft 128kts
09-Aug-18 13:40 34.241206 -118.622816 98 4037ft 127kts
09-Aug-18 13:41 34.234561 -118.581585 100 3480ft 112kts
09-Aug-18 13:42 34.227774 -118.547747 106 3507ft 100kts
09-Aug-18 13:43 34.219013 -118.516011 108 3472ft 100kts
09-Aug-18 13:44 34.209837 -118.483234 108 3223ft 103kts
09-Aug-18 13:45 34.201073 -118.449750 101 2668ft 105kts
09-Aug-18 13:46 34.197453 -118.418039 89 2112ft 77kts
09-Aug-18 13:47 34.198229 -118.393517 89 1441ft 77kts
09-Aug-18 13:48 34.197910 -118.368689 90 736ft 65kts
09-Aug-18 13:49 34.197381 -118.360348 151 715ft 0kts

Navigation Log

Ident Type
1. KSBA Airport
2. KBUR Airport